LOT7RM EPWA-EVRA
Flight info
| Callsign | LOT7RM |
|---|---|
| Flight time | N/A |
| Altitude | 35000 |
| Route | BAMSO7G BAMSO DCT SUWGI M857 BOKSU DCT ROLAV DCT GUNTA GUNTA2V |
| Aircraft | B738/M-SDE2E3FGHIRWXY/LB1 |
Departure
| Time | 2026-05-01 08:42 |
|---|---|
| Airport | Warsaw Chopin Airport (EPWA) |
Arrival
| Time | N/A |
|---|---|
| Airport | Riga International Airport (EVRA) |
| Time | Latitude | Longitude | Altitude | Speed | Heading |
|---|---|---|---|---|---|
| 2026-05-01 08:18 | 52.16958 | 20.97188 | 352 ft | 0 kts | 77° |
| 2026-05-01 08:32 | 52.16956 | 20.97179 | 352 ft | 2 kts | 77° |
| 2026-05-01 08:33 | 52.16953 | 20.97155 | 352 ft | 2 kts | 77° |
| 2026-05-01 08:33 | 52.16949 | 20.97131 | 351 ft | 2 kts | 72° |
| 2026-05-01 08:33 | 52.16945 | 20.97108 | 351 ft | 2 kts | 66° |
| 2026-05-01 08:33 | 52.16938 | 20.97086 | 351 ft | 2 kts | 60° |
| 2026-05-01 08:34 | 52.16932 | 20.97064 | 351 ft | 2 kts | 95° |
| 2026-05-01 08:34 | 52.16937 | 20.97041 | 351 ft | 2 kts | 130° |
| 2026-05-01 08:34 | 52.16944 | 20.97031 | 351 ft | 1 kts | 152° |
| 2026-05-01 08:34 | 52.16950 | 20.97027 | 351 ft | 0 kts | 152° |
| 2026-05-01 08:36 | 52.16948 | 20.97028 | 351 ft | 1 kts | 152° |
| 2026-05-01 08:36 | 52.16922 | 20.97051 | 351 ft | 6 kts | 150° |
| 2026-05-01 08:37 | 52.16869 | 20.97100 | 351 ft | 10 kts | 151° |
| 2026-05-01 08:37 | 52.16801 | 20.97159 | 351 ft | 11 kts | 151° |
| 2026-05-01 08:37 | 52.16737 | 20.97184 | 351 ft | 7 kts | 208° |
| 2026-05-01 08:37 | 52.16705 | 20.97117 | 351 ft | 7 kts | 240° |
| 2026-05-01 08:38 | 52.16680 | 20.97062 | 351 ft | 5 kts | 217° |
| 2026-05-01 08:38 | 52.16626 | 20.97066 | 351 ft | 11 kts | 152° |
| 2026-05-01 08:38 | 52.16550 | 20.97132 | 351 ft | 12 kts | 152° |
| 2026-05-01 08:38 | 52.16476 | 20.97196 | 351 ft | 12 kts | 152° |
| 2026-05-01 08:39 | 52.16409 | 20.97302 | 351 ft | 15 kts | 116° |
| 2026-05-01 08:39 | 52.16361 | 20.97473 | 351 ft | 18 kts | 114° |
| 2026-05-01 08:39 | 52.16317 | 20.97631 | 351 ft | 10 kts | 115° |
| 2026-05-01 08:39 | 52.16298 | 20.97716 | 351 ft | 6 kts | 160° |
| 2026-05-01 08:40 | 52.16305 | 20.97666 | 351 ft | 6 kts | 303° |
| 2026-05-01 08:40 | 52.16316 | 20.97632 | 351 ft | 0 kts | 295° |
| 2026-05-01 08:41 | 52.16323 | 20.97608 | 351 ft | 16 kts | 295° |
| 2026-05-01 08:41 | 52.16477 | 20.97056 | 351 ft | 87 kts | 294° |
| 2026-05-01 08:41 | 52.16819 | 20.95837 | 358 ft | 145 kts | 295° |
| 2026-05-01 08:42 | 52.17301 | 20.94148 | 612 ft | 170 kts | 296° |
| 2026-05-01 08:42 | 52.17791 | 20.92455 | 1373 ft | 166 kts | 296° |
| 2026-05-01 08:42 | 52.18285 | 20.90730 | 1982 ft | 170 kts | 303° |
| 2026-05-01 08:42 | 52.19154 | 20.89434 | 2400 ft | 177 kts | 339° |
| 2026-05-01 08:43 | 52.20353 | 20.88806 | 2849 ft | 188 kts | 343° |
| 2026-05-01 08:43 | 52.21636 | 20.88017 | 3286 ft | 202 kts | 335° |
| 2026-05-01 08:43 | 52.22783 | 20.86610 | 3726 ft | 218 kts | 316° |
| 2026-05-01 08:43 | 52.23812 | 20.84722 | 4207 ft | 229 kts | 314° |
| 2026-05-01 08:44 | 52.24883 | 20.82754 | 4826 ft | 234 kts | 316° |
| 2026-05-01 08:44 | 52.26012 | 20.80845 | 5463 ft | 236 kts | 321° |
| 2026-05-01 08:44 | 52.27398 | 20.79474 | 6119 ft | 233 kts | 345° |
| 2026-05-01 08:44 | 52.28973 | 20.78973 | 6810 ft | 231 kts | 357° |
| 2026-05-01 08:45 | 52.30555 | 20.79204 | 7466 ft | 230 kts | 16° |
| 2026-05-01 08:45 | 52.32002 | 20.80241 | 8152 ft | 230 kts | 32° |
| 2026-05-01 08:45 | 52.33259 | 20.81822 | 8821 ft | 230 kts | 37° |
| 2026-05-01 08:45 | 52.34490 | 20.83482 | 9470 ft | 230 kts | 36° |
| 2026-05-01 08:46 | 52.35790 | 20.84972 | 10092 ft | 232 kts | 32° |
| 2026-05-01 08:46 | 52.37151 | 20.86402 | 10692 ft | 238 kts | 32° |
| 2026-05-01 08:46 | 52.38554 | 20.87921 | 11172 ft | 249 kts | 33° |
| 2026-05-01 08:46 | 52.40011 | 20.89558 | 11575 ft | 262 kts | 34° |
| 2026-05-01 08:47 | 52.41532 | 20.91299 | 11993 ft | 275 kts | 34° |
| 2026-05-01 08:47 | 52.43156 | 20.93163 | 12380 ft | 289 kts | 34° |
| 2026-05-01 08:47 | 52.44839 | 20.95094 | 12746 ft | 303 kts | 34° |
| 2026-05-01 08:47 | 52.46569 | 20.97078 | 13344 ft | 310 kts | 34° |